Wednesday, January 17, 2018, 2:56 PM GMT
Back to Local

CWFQ, Frelighsburg

Location: , , Canada Lat: 45.05
Local Time: 2:56 PM GMT (14:56 GMT) Lon: -72.833
Time Zone: GMT Elev: 498 ft

Show me the last for .
Show Coded

Time T Td Feel RH Dir Speed Gust Alt SLP Vis Weather Sky Remarks
2018-01-17 14:00 12 10 - 90 20° 2 - - 30.33 0 None
2018-01-17 13:00 16 13 - 90 250° 2 - - 30.33 0 None
2018-01-17 12:00 14 12 - 91 120° 2 - - 30.33 0 None
2018-01-17 11:00 14 11 - 90 - Calm - - 30.34 0 None
2018-01-17 10:00 13 11 7 93 350° 3 - - 30.36 0 None
2018-01-17 09:00 14 12 8 93 280° 3 - - 30.36 0 None
2018-01-17 08:00 21 19 - 94 210° 2 - - 30.35 0 1-hr Precip Total: 0.01"
2018-01-17 07:00 19 17 14 93 160° 3 - - 30.34 0 None
2018-01-17 06:00 19 17 - 92 200° 2 - - 30.36 0 1-hr Precip Total: 0.01"
2018-01-17 05:00 17 15 - 91 170° 2 - - 30.37 0 None
2018-01-17 04:00 20 18 - 91 210° 2 - - 30.37 0 None
2018-01-17 03:00 21 19 - 91 170° 2 - - 30.38 0 None
2018-01-17 02:00 21 19 - 91 170° 2 - - 30.38 0 None
2018-01-17 01:00 19 16 - 88 90° 1 - - 30.40 0 None
2018-01-17 00:00 20 17 - 89 160° 1 - - 30.40 0 None
2018-01-16 23:00 18 15 - 88 150° 1 - - 30.40 0 None
2018-01-16 22:00 18 15 - 88 - Calm - - 30.41 0 None
2018-01-16 21:00 17 13 - 84 320° 1 - - 30.40 0 None
2018-01-16 20:00 20 15 - 81 340° 1 - - 30.39 0 None
2018-01-16 19:00 18 13 13 80 350° 3 - - 30.39 0 None
2018-01-16 18:00 20 13 - 74 270° 2 - - 30.39 0 1-hr Precip Total: 0.02"
2018-01-16 17:00 19 11 - 72 290° 2 - - 30.40 0 None
2018-01-16 16:00 19 13 14 77 200° 3 - - 30.42 0 None
2018-01-16 15:00 16 12 11 82 190° 3 - - 30.42 0 None

Support USWX by starting your Amazon purchase here.